sensor_id;sensor_type;location;lat;lon;timestamp;pressure;altitude;pressure_sealevel;temperature;humidity
38452;BME280;24231;52.514;13.438;2023-02-18T00:03:04;100997.75;;;7.31;57.55
38452;BME280;24231;52.514;13.438;2023-02-18T00:05:32;100991.42;;;7.83;57.50
38452;BME280;24231;52.514;13.438;2023-02-18T00:07:59;100992.45;;;7.25;59.44
38452;BME280;24231;52.514;13.438;2023-02-18T00:10:26;100988.20;;;6.81;60.74
38452;BME280;24231;52.514;13.438;2023-02-18T00:12:54;100987.46;;;7.64;58.85
38452;BME280;24231;52.514;13.438;2023-02-18T00:15:21;100990.43;;;7.36;59.44
38452;BME280;24231;52.514;13.438;2023-02-18T00:17:49;100992.28;;;7.05;60.66
38452;BME280;24231;52.514;13.438;2023-02-18T00:20:16;100986.45;;;6.88;61.22
38452;BME280;24231;52.514;13.438;2023-02-18T00:22:43;100990.23;;;6.82;61.74
38452;BME280;24231;52.514;13.438;2023-02-18T00:25:11;100991.37;;;7.04;61.37
38452;BME280;24231;52.514;13.438;2023-02-18T00:27:38;101005.14;;;6.67;62.48
38452;BME280;24231;52.514;13.438;2023-02-18T00:30:07;101014.79;;;6.65;62.61
38452;BME280;24231;52.514;13.438;2023-02-18T00:32:34;100998.31;;;6.85;62.03
38452;BME280;24231;52.514;13.438;2023-02-18T00:35:03;101009.78;;;6.83;60.89
38452;BME280;24231;52.514;13.438;2023-02-18T00:37:30;101008.73;;;6.44;63.09
38452;BME280;24231;52.514;13.438;2023-02-18T00:39:57;101008.55;;;6.98;62.21
38452;BME280;24231;52.514;13.438;2023-02-18T00:42:25;101013.12;;;6.56;63.46
38452;BME280;24231;52.514;13.438;2023-02-18T00:44:52;101019.90;;;7.09;61.66
38452;BME280;24231;52.514;13.438;2023-02-18T00:47:19;101016.23;;;6.36;63.62
38452;BME280;24231;52.514;13.438;2023-02-18T00:49:47;101021.62;;;6.26;64.66
38452;BME280;24231;52.514;13.438;2023-02-18T00:52:14;101021.86;;;6.64;63.55
38452;BME280;24231;52.514;13.438;2023-02-18T00:54:41;101025.09;;;6.63;63.33
38452;BME280;24231;52.514;13.438;2023-02-18T00:57:11;101037.21;;;7.10;62.21
38452;BME280;24231;52.514;13.438;2023-02-18T00:59:39;101037.01;;;6.44;64.34
38452;BME280;24231;52.514;13.438;2023-02-18T01:02:06;101036.75;;;6.44;64.27
38452;BME280;24231;52.514;13.438;2023-02-18T01:04:34;101038.63;;;6.74;63.44
38452;BME280;24231;52.514;13.438;2023-02-18T01:07:01;101028.73;;;6.52;63.93
38452;BME280;24231;52.514;13.438;2023-02-18T01:09:28;101037.37;;;6.29;65.16
38452;BME280;24231;52.514;13.438;2023-02-18T01:11:56;101033.66;;;6.07;65.93
38452;BME280;24231;52.514;13.438;2023-02-18T01:14:23;101026.36;;;6.04;65.23
38452;BME280;24231;52.514;13.438;2023-02-18T01:16:50;101013.10;;;6.89;63.13
38452;BME280;24231;52.514;13.438;2023-02-18T01:19:18;101016.64;;;6.87;61.53
38452;BME280;24231;52.514;13.438;2023-02-18T01:21:45;101015.74;;;6.26;64.23
38452;BME280;24231;52.514;13.438;2023-02-18T01:24:53;101025.47;;;6.45;63.42
38452;BME280;24231;52.514;13.438;2023-02-18T01:27:20;101026.80;;;6.52;62.80
38452;BME280;24231;52.514;13.438;2023-02-18T01:29:58;101020.52;;;6.27;63.48
38452;BME280;24231;52.514;13.438;2023-02-18T01:34:16;101024.34;;;6.49;63.77
38452;BME280;24231;52.514;13.438;2023-02-18T01:36:43;101023.83;;;6.62;62.57
38452;BME280;24231;52.514;13.438;2023-02-18T01:40:08;101027.03;;;5.94;66.83
38452;BME280;24231;52.514;13.438;2023-02-18T01:42:36;101030.65;;;5.80;66.34
38452;BME280;24231;52.514;13.438;2023-02-18T01:47:18;101030.43;;;5.94;66.32
38452;BME280;24231;52.514;13.438;2023-02-18T01:49:49;101022.69;;;5.95;65.72
38452;BME280;24231;52.514;13.438;2023-02-18T01:52:21;101027.10;;;6.33;63.81
38452;BME280;24231;52.514;13.438;2023-02-18T01:54:52;101033.99;;;6.39;63.48
38452;BME280;24231;52.514;13.438;2023-02-18T01:57:24;101033.40;;;6.31;63.68
38452;BME280;24231;52.514;13.438;2023-02-18T01:59:56;101038.63;;;5.93;65.00
38452;BME280;24231;52.514;13.438;2023-02-18T02:02:27;101028.04;;;6.55;63.43
38452;BME280;24231;52.514;13.438;2023-02-18T02:04:54;101024.37;;;6.17;64.08
38452;BME280;24231;52.514;13.438;2023-02-18T02:07:23;101031.52;;;5.85;66.03
38452;BME280;24231;52.514;13.438;2023-02-18T02:09:53;101022.55;;;5.95;65.75
38452;BME280;24231;52.514;13.438;2023-02-18T02:12:37;101032.25;;;6.10;65.66
38452;BME280;24231;52.514;13.438;2023-02-18T02:15:22;101033.31;;;5.91;65.33
38452;BME280;24231;52.514;13.438;2023-02-18T02:18:01;101046.71;;;5.79;66.56
38452;BME280;24231;52.514;13.438;2023-02-18T02:20:50;101040.84;;;6.01;65.53
38452;BME280;24231;52.514;13.438;2023-02-18T02:25:27;101038.54;;;6.28;65.12
38452;BME280;24231;52.514;13.438;2023-02-18T02:28:37;101038.10;;;5.98;65.44
38452;BME280;24231;52.514;13.438;2023-02-18T02:31:35;101039.04;;;6.42;63.54
38452;BME280;24231;52.514;13.438;2023-02-18T02:34:47;101044.78;;;5.51;65.68
38452;BME280;24231;52.514;13.438;2023-02-18T02:37:37;101042.64;;;6.72;62.45
38452;BME280;24231;52.514;13.438;2023-02-18T02:40:26;101040.34;;;6.29;63.84
38452;BME280;24231;52.514;13.438;2023-02-18T02:46:28;101045.13;;;6.67;63.13
38452;BME280;24231;52.514;13.438;2023-02-18T02:50:49;101032.20;;;6.30;63.58
38452;BME280;24231;52.514;13.438;2023-02-18T02:53:40;101036.04;;;6.22;63.40
38452;BME280;24231;52.514;13.438;2023-02-18T02:56:12;101040.05;;;5.98;64.40
38452;BME280;24231;52.514;13.438;2023-02-18T02:58:41;101054.40;;;5.90;64.65
38452;BME280;24231;52.514;13.438;2023-02-18T03:01:25;101052.68;;;6.07;64.27
38452;BME280;24231;52.514;13.438;2023-02-18T03:04:22;101050.96;;;5.91;64.24
38452;BME280;24231;52.514;13.438;2023-02-18T03:07:10;101055.01;;;5.75;65.50
38452;BME280;24231;52.514;13.438;2023-02-18T03:09:52;101053.88;;;5.95;64.30
38452;BME280;24231;52.514;13.438;2023-02-18T03:12:31;101043.30;;;5.95;63.84
38452;BME280;24231;52.514;13.438;2023-02-18T03:15:17;101048.57;;;5.92;64.93
38452;BME280;24231;52.514;13.438;2023-02-18T03:17:53;101054.81;;;5.70;65.12
38452;BME280;24231;52.514;13.438;2023-02-18T03:20:33;101039.65;;;5.80;64.98
38452;BME280;24231;52.514;13.438;2023-02-18T03:23:48;101043.80;;;5.92;64.72
38452;BME280;24231;52.514;13.438;2023-02-18T03:26:20;101050.76;;;5.54;65.82
38452;BME280;24231;52.514;13.438;2023-02-18T03:28:48;101039.45;;;6.31;62.53
38452;BME280;24231;52.514;13.438;2023-02-18T03:31:19;101040.01;;;6.13;63.77
38452;BME280;24231;52.514;13.438;2023-02-18T03:33:51;101046.19;;;6.48;62.67
38452;BME280;24231;52.514;13.438;2023-02-18T03:36:21;101044.37;;;5.64;64.19
38452;BME280;24231;52.514;13.438;2023-02-18T03:38:53;101036.06;;;6.03;63.69
38452;BME280;24231;52.514;13.438;2023-02-18T03:41:22;101043.21;;;5.51;65.02
38452;BME280;24231;52.514;13.438;2023-02-18T03:43:51;101036.70;;;6.43;61.68
38452;BME280;24231;52.514;13.438;2023-02-18T03:46:19;101039.41;;;5.56;64.10
38452;BME280;24231;52.514;13.438;2023-02-18T03:48:58;101039.64;;;5.84;63.57
38452;BME280;24231;52.514;13.438;2023-02-18T03:51:26;101038.28;;;6.03;61.94
38452;BME280;24231;52.514;13.438;2023-02-18T03:53:53;101036.90;;;6.29;61.12
38452;BME280;24231;52.514;13.438;2023-02-18T03:56:21;101024.14;;;6.45;61.37
38452;BME280;24231;52.514;13.438;2023-02-18T03:58:49;101033.87;;;6.04;62.30
38452;BME280;24231;52.514;13.438;2023-02-18T04:01:16;101043.92;;;5.48;63.34
38452;BME280;24231;52.514;13.438;2023-02-18T04:03:58;101037.72;;;6.40;60.53
38452;BME280;24231;52.514;13.438;2023-02-18T04:06:27;101044.86;;;6.05;62.72
38452;BME280;24231;52.514;13.438;2023-02-18T04:08:57;101049.59;;;6.00;61.67
38452;BME280;24231;52.514;13.438;2023-02-18T04:11:40;101048.30;;;6.23;61.27
38452;BME280;24231;52.514;13.438;2023-02-18T04:14:36;101042.24;;;6.55;59.17
38452;BME280;24231;52.514;13.438;2023-02-18T04:17:05;101043.92;;;6.66;58.47
38452;BME280;24231;52.514;13.438;2023-02-18T04:19:32;101053.73;;;6.27;59.60
38452;BME280;24231;52.514;13.438;2023-02-18T04:22:00;101049.07;;;6.36;59.82
38452;BME280;24231;52.514;13.438;2023-02-18T04:24:28;101054.80;;;6.53;58.79
38452;BME280;24231;52.514;13.438;2023-02-18T04:26:55;101062.22;;;6.39;59.48
38452;BME280;24231;52.514;13.438;2023-02-18T04:29:22;101060.75;;;6.78;57.99
38452;BME280;24231;52.514;13.438;2023-02-18T04:31:50;101055.22;;;6.76;58.07
38452;BME280;24231;52.514;13.438;2023-02-18T04:34:17;101068.54;;;5.49;62.06
38452;BME280;24231;52.514;13.438;2023-02-18T04:36:45;101068.66;;;5.95;61.37
38452;BME280;24231;52.514;13.438;2023-02-18T04:39:12;101068.66;;;6.52;59.89
38452;BME280;24231;52.514;13.438;2023-02-18T04:41:40;101064.09;;;7.07;57.84
38452;BME280;24231;52.514;13.438;2023-02-18T04:44:08;101067.23;;;6.09;60.61
38452;BME280;24231;52.514;13.438;2023-02-18T04:46:35;101068.87;;;7.04;57.65
38452;BME280;24231;52.514;13.438;2023-02-18T04:49:02;101066.59;;;6.51;59.24
38452;BME280;24231;52.514;13.438;2023-02-18T04:51:30;101078.49;;;5.67;61.55
38452;BME280;24231;52.514;13.438;2023-02-18T04:53:57;101075.54;;;5.89;61.00
38452;BME280;24231;52.514;13.438;2023-02-18T04:56:32;101074.03;;;6.37;60.29
38452;BME280;24231;52.514;13.438;2023-02-18T05:01:25;101078.00;;;6.70;58.90
38452;BME280;24231;52.514;13.438;2023-02-18T05:08:40;101076.93;;;6.79;59.10
38452;BME280;24231;52.514;13.438;2023-02-18T05:11:09;101079.87;;;5.68;62.31
38452;BME280;24231;52.514;13.438;2023-02-18T05:13:36;101078.86;;;5.38;63.11
38452;BME280;24231;52.514;13.438;2023-02-18T05:16:04;101081.62;;;5.60;62.48
38452;BME280;24231;52.514;13.438;2023-02-18T05:18:31;101072.03;;;6.26;59.74
38452;BME280;24231;52.514;13.438;2023-02-18T05:20:58;101078.70;;;5.88;60.26
38452;BME280;24231;52.514;13.438;2023-02-18T05:23:26;101084.39;;;5.63;61.59
38452;BME280;24231;52.514;13.438;2023-02-18T05:25:54;101070.61;;;6.61;58.60
38452;BME280;24231;52.514;13.438;2023-02-18T05:28:21;101065.54;;;6.81;57.63
38452;BME280;24231;52.514;13.438;2023-02-18T05:30:48;101067.98;;;5.85;60.41
38452;BME280;24231;52.514;13.438;2023-02-18T05:33:15;101068.77;;;6.23;60.22
38452;BME280;24231;52.514;13.438;2023-02-18T05:35:43;101061.92;;;6.07;60.07
38452;BME280;24231;52.514;13.438;2023-02-18T05:38:10;101061.83;;;6.50;58.63
38452;BME280;24231;52.514;13.438;2023-02-18T05:40:38;101051.64;;;6.20;59.02
38452;BME280;24231;52.514;13.438;2023-02-18T05:43:06;101055.94;;;6.36;58.63
38452;BME280;24231;52.514;13.438;2023-02-18T05:45:46;101059.04;;;6.06;59.36
38452;BME280;24231;52.514;13.438;2023-02-18T05:48:13;101050.52;;;6.30;58.93
38452;BME280;24231;52.514;13.438;2023-02-18T05:50:41;101051.77;;;7.53;54.62
38452;BME280;24231;52.514;13.438;2023-02-18T05:53:08;101047.56;;;7.50;55.14
38452;BME280;24231;52.514;13.438;2023-02-18T05:55:35;101049.51;;;7.57;54.79
38452;BME280;24231;52.514;13.438;2023-02-18T05:58:03;101053.81;;;7.59;54.27
38452;BME280;24231;52.514;13.438;2023-02-18T06:00:30;101056.23;;;6.74;56.67
38452;BME280;24231;52.514;13.438;2023-02-18T06:02:58;101051.27;;;6.86;56.60
38452;BME280;24231;52.514;13.438;2023-02-18T06:05:26;101055.42;;;7.15;55.74
38452;BME280;24231;52.514;13.438;2023-02-18T06:07:53;101061.63;;;7.26;55.74
38452;BME280;24231;52.514;13.438;2023-02-18T06:10:21;101060.30;;;7.07;54.94
38452;BME280;24231;52.514;13.438;2023-02-18T06:12:49;101056.60;;;7.15;54.76
38452;BME280;24231;52.514;13.438;2023-02-18T06:15:16;101058.82;;;6.63;56.30
38452;BME280;24231;52.514;13.438;2023-02-18T06:17:48;101058.88;;;7.83;53.01
38452;BME280;24231;52.514;13.438;2023-02-18T06:20:16;101054.14;;;7.86;53.13
38452;BME280;24231;52.514;13.438;2023-02-18T06:22:49;101053.81;;;7.58;53.57
38452;BME280;24231;52.514;13.438;2023-02-18T06:25:17;101059.22;;;7.36;54.25
38452;BME280;24231;52.514;13.438;2023-02-18T06:27:44;101047.09;;;8.58;50.87
38452;BME280;24231;52.514;13.438;2023-02-18T06:30:12;101053.16;;;8.03;52.53
38452;BME280;24231;52.514;13.438;2023-02-18T06:32:39;101059.30;;;8.05;52.12
38452;BME280;24231;52.514;13.438;2023-02-18T06:35:07;101054.32;;;7.76;51.98
38452;BME280;24231;52.514;13.438;2023-02-18T06:37:35;101054.37;;;6.78;53.77
38452;BME280;24231;52.514;13.438;2023-02-18T06:40:07;101050.66;;;6.24;56.67
38452;BME280;24231;52.514;13.438;2023-02-18T06:42:45;101049.28;;;7.19;55.39
38452;BME280;24231;52.514;13.438;2023-02-18T06:45:12;101047.23;;;6.63;56.78
38452;BME280;24231;52.514;13.438;2023-02-18T06:47:41;101044.94;;;7.21;55.71
38452;BME280;24231;52.514;13.438;2023-02-18T06:50:09;101040.56;;;6.85;56.28
38452;BME280;24231;52.514;13.438;2023-02-18T06:52:37;101037.00;;;7.12;55.70
38452;BME280;24231;52.514;13.438;2023-02-18T06:55:07;101030.79;;;7.02;56.22
38452;BME280;24231;52.514;13.438;2023-02-18T06:57:36;101037.87;;;8.01;53.34
38452;BME280;24231;52.514;13.438;2023-02-18T07:00:14;101038.69;;;8.18;52.50
38452;BME280;24231;52.514;13.438;2023-02-18T07:02:41;101038.41;;;8.17;52.92
38452;BME280;24231;52.514;13.438;2023-02-18T07:05:10;101043.54;;;7.24;55.77
38452;BME280;24231;52.514;13.438;2023-02-18T07:07:37;101039.97;;;7.42;54.82
38452;BME280;24231;52.514;13.438;2023-02-18T07:10:14;101030.51;;;7.76;53.74
38452;BME280;24231;52.514;13.438;2023-02-18T07:12:42;101025.67;;;7.53;55.01
38452;BME280;24231;52.514;13.438;2023-02-18T07:15:14;101025.31;;;6.89;57.33
38452;BME280;24231;52.514;13.438;2023-02-18T07:17:42;101030.73;;;6.76;57.23
38452;BME280;24231;52.514;13.438;2023-02-18T07:20:25;101025.53;;;6.28;59.01
38452;BME280;24231;52.514;13.438;2023-02-18T07:22:58;101027.41;;;6.68;57.91
38452;BME280;24231;52.514;13.438;2023-02-18T07:25:30;101024.34;;;7.06;56.90
38452;BME280;24231;52.514;13.438;2023-02-18T07:27:58;101015.45;;;7.66;55.15
38452;BME280;24231;52.514;13.438;2023-02-18T07:30:26;101012.40;;;8.09;53.92
38452;BME280;24231;52.514;13.438;2023-02-18T07:32:53;101009.62;;;7.76;54.29
38452;BME280;24231;52.514;13.438;2023-02-18T07:35:20;101015.70;;;8.00;53.97
38452;BME280;24231;52.514;13.438;2023-02-18T07:37:49;101019.11;;;7.44;55.90
38452;BME280;24231;52.514;13.438;2023-02-18T07:40:18;101016.95;;;8.01;54.74
38452;BME280;24231;52.514;13.438;2023-02-18T07:42:45;101014.86;;;7.78;55.24
38452;BME280;24231;52.514;13.438;2023-02-18T07:45:19;101012.15;;;7.06;57.24
38452;BME280;24231;52.514;13.438;2023-02-18T07:47:46;101004.28;;;8.14;54.95
38452;BME280;24231;52.514;13.438;2023-02-18T07:50:13;100996.29;;;7.39;57.50
38452;BME280;24231;52.514;13.438;2023-02-18T07:52:41;100993.89;;;7.98;55.86
38452;BME280;24231;52.514;13.438;2023-02-18T07:55:08;101000.51;;;7.66;57.01
38452;BME280;24231;52.514;13.438;2023-02-18T07:57:35;100993.45;;;7.89;56.01
38452;BME280;24231;52.514;13.438;2023-02-18T08:00:03;100997.00;;;8.53;54.96
38452;BME280;24231;52.514;13.438;2023-02-18T08:02:31;100996.29;;;8.29;55.40
38452;BME280;24231;52.514;13.438;2023-02-18T08:04:58;100993.32;;;8.67;56.10
38452;BME280;24231;52.514;13.438;2023-02-18T08:07:25;101000.61;;;7.64;58.65
38452;BME280;24231;52.514;13.438;2023-02-18T08:09:53;100988.61;;;7.76;59.04
38452;BME280;24231;52.514;13.438;2023-02-18T08:12:20;100983.64;;;7.12;62.36
38452;BME280;24231;52.514;13.438;2023-02-18T08:14:47;100971.73;;;8.49;58.07
38452;BME280;24231;52.514;13.438;2023-02-18T08:17:15;100975.39;;;7.64;60.97
38452;BME280;24231;52.514;13.438;2023-02-18T08:19:43;100968.07;;;8.29;59.19
38452;BME280;24231;52.514;13.438;2023-02-18T08:22:10;100968.82;;;8.53;57.35
38452;BME280;24231;52.514;13.438;2023-02-18T08:24:37;100962.26;;;7.96;59.03
38452;BME280;24231;52.514;13.438;2023-02-18T08:27:05;100957.38;;;8.15;57.88
38452;BME280;24231;52.514;13.438;2023-02-18T08:29:33;100958.45;;;8.35;58.84
38452;BME280;24231;52.514;13.438;2023-02-18T08:32:01;100955.05;;;8.15;60.05
38452;BME280;24231;52.514;13.438;2023-02-18T08:35:33;100956.86;;;6.79;66.19
38452;BME280;24231;52.514;13.438;2023-02-18T08:38:32;100948.48;;;6.38;67.95
38452;BME280;24231;52.514;13.438;2023-02-18T08:41:02;100940.09;;;7.23;64.37
38452;BME280;24231;52.514;13.438;2023-02-18T08:43:38;100941.53;;;6.82;67.49
38452;BME280;24231;52.514;13.438;2023-02-18T08:46:19;100942.87;;;7.34;65.25
38452;BME280;24231;52.514;13.438;2023-02-18T08:48:46;100937.97;;;7.99;62.70
38452;BME280;24231;52.514;13.438;2023-02-18T08:51:16;100941.51;;;8.24;62.65
38452;BME280;24231;52.514;13.438;2023-02-18T08:53:44;100940.78;;;7.71;65.07
38452;BME280;24231;52.514;13.438;2023-02-18T08:56:11;100939.07;;;8.67;60.90
38452;BME280;24231;52.514;13.438;2023-02-18T08:58:40;100941.85;;;8.73;60.90
38452;BME280;24231;52.514;13.438;2023-02-18T09:01:09;100933.54;;;8.13;63.89
38452;BME280;24231;52.514;13.438;2023-02-18T09:03:37;100935.88;;;7.58;65.50
38452;BME280;24231;52.514;13.438;2023-02-18T09:06:05;100922.67;;;7.94;64.59
38452;BME280;24231;52.514;13.438;2023-02-18T09:08:33;100931.33;;;7.17;68.63
38452;BME280;24231;52.514;13.438;2023-02-18T09:11:02;100922.59;;;7.79;65.93
38452;BME280;24231;52.514;13.438;2023-02-18T09:13:30;100909.60;;;7.47;67.81
38452;BME280;24231;52.514;13.438;2023-02-18T09:15:59;100912.38;;;6.88;70.17
38452;BME280;24231;52.514;13.438;2023-02-18T09:18:27;100902.89;;;7.18;69.33
38452;BME280;24231;52.514;13.438;2023-02-18T09:20:56;100905.56;;;7.66;67.16
38452;BME280;24231;52.514;13.438;2023-02-18T09:23:24;100895.48;;;8.32;64.81
38452;BME280;24231;52.514;13.438;2023-02-18T09:25:50;100893.09;;;7.42;67.55
38452;BME280;24231;52.514;13.438;2023-02-18T09:28:18;100894.73;;;7.26;71.03
38452;BME280;24231;52.514;13.438;2023-02-18T09:30:45;100887.70;;;7.19;70.32
38452;BME280;24231;52.514;13.438;2023-02-18T09:33:14;100886.98;;;7.60;70.62
38452;BME280;24231;52.514;13.438;2023-02-18T09:35:42;100890.49;;;8.49;66.05
38452;BME280;24231;52.514;13.438;2023-02-18T09:38:11;100876.75;;;9.88;61.85
38452;BME280;24231;52.514;13.438;2023-02-18T09:40:42;100872.24;;;9.18;63.40
38452;BME280;24231;52.514;13.438;2023-02-18T09:43:17;100878.57;;;7.67;69.57
38452;BME280;24231;52.514;13.438;2023-02-18T09:45:45;100852.97;;;7.11;71.54
38452;BME280;24231;52.514;13.438;2023-02-18T09:48:12;100844.55;;;8.65;65.65
38452;BME280;24231;52.514;13.438;2023-02-18T09:50:40;100849.83;;;7.45;69.46
38452;BME280;24231;52.514;13.438;2023-02-18T09:53:11;100842.76;;;7.34;71.96
38452;BME280;24231;52.514;13.438;2023-02-18T09:55:39;100827.97;;;8.44;67.21
38452;BME280;24231;52.514;13.438;2023-02-18T09:58:12;100819.36;;;7.54;69.57
38452;BME280;24231;52.514;13.438;2023-02-18T10:00:42;100814.38;;;7.14;71.38
38452;BME280;24231;52.514;13.438;2023-02-18T10:03:13;100818.07;;;7.68;69.42
38452;BME280;24231;52.514;13.438;2023-02-18T10:05:49;100812.08;;;7.73;71.52
38452;BME280;24231;52.514;13.438;2023-02-18T10:08:23;100800.27;;;9.57;65.02
38452;BME280;24231;52.514;13.438;2023-02-18T10:10:51;100803.04;;;7.72;70.05
38452;BME280;24231;52.514;13.438;2023-02-18T10:13:22;100799.06;;;8.42;68.75
38452;BME280;24231;52.514;13.438;2023-02-18T10:15:50;100800.55;;;6.82;74.45
38452;BME280;24231;52.514;13.438;2023-02-18T10:18:26;100799.89;;;8.38;70.87
38452;BME280;24231;52.514;13.438;2023-02-18T10:21:03;100789.91;;;7.41;73.48
38452;BME280;24231;52.514;13.438;2023-02-18T10:23:33;100779.78;;;8.30;71.50
38452;BME280;24231;52.514;13.438;2023-02-18T10:26:03;100773.40;;;7.38;74.05
38452;BME280;24231;52.514;13.438;2023-02-18T10:28:32;100758.20;;;8.20;72.24
38452;BME280;24231;52.514;13.438;2023-02-18T10:31:04;100748.02;;;7.50;73.02
38452;BME280;24231;52.514;13.438;2023-02-18T10:33:34;100738.39;;;7.60;75.31
38452;BME280;24231;52.514;13.438;2023-02-18T10:36:16;100729.91;;;6.79;78.10
38452;BME280;24231;52.514;13.438;2023-02-18T10:39:00;100715.39;;;6.59;79.88
38452;BME280;24231;52.514;13.438;2023-02-18T10:41:35;100700.52;;;8.21;75.00
38452;BME280;24231;52.514;13.438;2023-02-18T10:44:11;100693.59;;;7.92;75.04
38452;BME280;24231;52.514;13.438;2023-02-18T10:46:48;100681.88;;;7.01;79.95
38452;BME280;24231;52.514;13.438;2023-02-18T10:49:34;100670.30;;;7.10;78.29
38452;BME280;24231;52.514;13.438;2023-02-18T10:52:13;100664.97;;;6.48;81.68
38452;BME280;24231;52.514;13.438;2023-02-18T10:54:57;100660.77;;;6.84;81.42
38452;BME280;24231;52.514;13.438;2023-02-18T10:57:27;100657.03;;;6.84;79.49
38452;BME280;24231;52.514;13.438;2023-02-18T10:59:57;100645.17;;;8.14;74.36
38452;BME280;24231;52.514;13.438;2023-02-18T11:02:28;100639.00;;;8.52;74.11
38452;BME280;24231;52.514;13.438;2023-02-18T11:04:57;100631.74;;;9.35;71.04
38452;BME280;24231;52.514;13.438;2023-02-18T11:07:30;100617.06;;;8.11;75.75
38452;BME280;24231;52.514;13.438;2023-02-18T11:10:00;100609.05;;;8.27;75.74
38452;BME280;24231;52.514;13.438;2023-02-18T11:12:32;100593.92;;;8.38;74.42
38452;BME280;24231;52.514;13.438;2023-02-18T11:15:17;100583.31;;;9.31;71.72
38452;BME280;24231;52.514;13.438;2023-02-18T11:17:45;100574.59;;;7.41;79.40
38452;BME280;24231;52.514;13.438;2023-02-18T11:20:25;100569.83;;;7.80;78.28
38452;BME280;24231;52.514;13.438;2023-02-18T11:22:58;100561.22;;;7.45;76.74
38452;BME280;24231;52.514;13.438;2023-02-18T11:25:27;100563.81;;;6.58;82.61
38452;BME280;24231;52.514;13.438;2023-02-18T11:27:58;100556.10;;;7.18;81.56
38452;BME280;24231;52.514;13.438;2023-02-18T11:30:30;100538.59;;;7.53;78.44
38452;BME280;24231;52.514;13.438;2023-02-18T11:33:00;100535.47;;;7.11;80.64
38452;BME280;24231;52.514;13.438;2023-02-18T11:35:31;100533.32;;;7.72;79.94
38452;BME280;24231;52.514;13.438;2023-02-18T11:38:01;100524.03;;;7.23;82.14
38452;BME280;24231;52.514;13.438;2023-02-18T11:40:31;100523.22;;;8.05;77.30
38452;BME280;24231;52.514;13.438;2023-02-18T11:43:04;100513.65;;;8.73;73.72
38452;BME280;24231;52.514;13.438;2023-02-18T11:45:46;100499.80;;;8.73;73.37
38452;BME280;24231;52.514;13.438;2023-02-18T11:48:27;100495.88;;;8.43;75.91
38452;BME280;24231;52.514;13.438;2023-02-18T11:51:01;100492.82;;;8.32;74.83
38452;BME280;24231;52.514;13.438;2023-02-18T11:53:31;100481.07;;;8.95;72.17
38452;BME280;24231;52.514;13.438;2023-02-18T11:56:17;100469.10;;;7.75;79.75
38452;BME280;24231;52.514;13.438;2023-02-18T11:58:47;100462.79;;;7.04;83.00
38452;BME280;24231;52.514;13.438;2023-02-18T12:01:41;100453.10;;;7.00;83.38
38452;BME280;24231;52.514;13.438;2023-02-18T12:04:35;100452.51;;;8.33;79.88
38452;BME280;24231;52.514;13.438;2023-02-18T12:07:19;100440.95;;;8.20;80.31
38452;BME280;24231;52.514;13.438;2023-02-18T12:10:22;100419.94;;;8.97;77.04
38452;BME280;24231;52.514;13.438;2023-02-18T12:13:54;100421.47;;;8.51;79.94
38452;BME280;24231;52.514;13.438;2023-02-18T12:16:27;100409.60;;;7.96;83.45
38452;BME280;24231;52.514;13.438;2023-02-18T12:19:13;100408.68;;;7.79;84.07
38452;BME280;24231;52.514;13.438;2023-02-18T12:21:55;100403.74;;;8.82;80.54
38452;BME280;24231;52.514;13.438;2023-02-18T12:24:38;100402.44;;;8.44;81.36
38452;BME280;24231;52.514;13.438;2023-02-18T12:27:18;100397.64;;;8.32;85.50
38452;BME280;24231;52.514;13.438;2023-02-18T12:30:02;100389.86;;;7.75;86.42
38452;BME280;24231;52.514;13.438;2023-02-18T12:32:44;100392.17;;;7.29;90.02
38452;BME280;24231;52.514;13.438;2023-02-18T12:36:00;100378.00;;;7.12;94.26
38452;BME280;24231;52.514;13.438;2023-02-18T12:39:19;100374.30;;;8.62;88.33
38452;BME280;24231;52.514;13.438;2023-02-18T12:42:08;100362.61;;;8.68;87.38
38452;BME280;24231;52.514;13.438;2023-02-18T12:44:47;100363.00;;;9.08;85.86
38452;BME280;24231;52.514;13.438;2023-02-18T12:47:29;100358.04;;;9.28;85.36
38452;BME280;24231;52.514;13.438;2023-02-18T12:50:08;100352.63;;;8.27;90.22
38452;BME280;24231;52.514;13.438;2023-02-18T12:52:52;100344.36;;;8.89;89.62
38452;BME280;24231;52.514;13.438;2023-02-18T12:55:40;100350.54;;;7.91;93.55
38452;BME280;24231;52.514;13.438;2023-02-18T12:58:22;100344.85;;;7.93;95.86
38452;BME280;24231;52.514;13.438;2023-02-18T13:01:00;100330.66;;;8.54;92.34
38452;BME280;24231;52.514;13.438;2023-02-18T13:04:26;100330.96;;;8.80;93.78
38452;BME280;24231;52.514;13.438;2023-02-18T13:07:11;100324.60;;;8.85;93.45
38452;BME280;24231;52.514;13.438;2023-02-18T13:09:52;100314.58;;;8.63;93.85
38452;BME280;24231;52.514;13.438;2023-02-18T13:12:34;100307.32;;;8.92;93.93
38452;BME280;24231;52.514;13.438;2023-02-18T13:15:12;100306.51;;;9.13;91.55
38452;BME280;24231;52.514;13.438;2023-02-18T13:17:43;100305.83;;;9.33;90.92
38452;BME280;24231;52.514;13.438;2023-02-18T13:20:19;100292.88;;;10.03;87.17
38452;BME280;24231;52.514;13.438;2023-02-18T13:22:53;100290.43;;;8.89;93.63
38452;BME280;24231;52.514;13.438;2023-02-18T13:25:23;100295.16;;;9.27;92.89
38452;BME280;24231;52.514;13.438;2023-02-18T13:27:57;100291.02;;;9.61;91.69
38452;BME280;24231;52.514;13.438;2023-02-18T13:30:35;100290.56;;;9.78;88.82
38452;BME280;24231;52.514;13.438;2023-02-18T13:33:12;100295.77;;;9.20;93.25
38452;BME280;24231;52.514;13.438;2023-02-18T13:35:45;100294.30;;;10.43;87.96
38452;BME280;24231;52.514;13.438;2023-02-18T13:38:58;100299.03;;;9.90;89.46
38452;BME280;24231;52.514;13.438;2023-02-18T13:41:27;100295.55;;;10.50;86.64
38452;BME280;24231;52.514;13.438;2023-02-18T13:43:55;100298.11;;;9.67;90.43